sensor_id;sensor_type;location;lat;lon;timestamp;P1;durP1;ratioP1;P2;durP2;ratioP2
37237;SDS011;23129;49.662;8.448;2023-02-13T00:01:26;13.85;;;7.13;;
37237;SDS011;23129;49.662;8.448;2023-02-13T00:03:54;11.07;;;7.05;;
37237;SDS011;23129;49.662;8.448;2023-02-13T00:06:23;14.02;;;6.95;;
37237;SDS011;23129;49.662;8.448;2023-02-13T00:08:52;10.40;;;6.57;;
37237;SDS011;23129;49.662;8.448;2023-02-13T00:11:20;12.95;;;7.07;;
37237;SDS011;23129;49.662;8.448;2023-02-13T00:13:49;16.85;;;8.13;;
37237;SDS011;23129;49.662;8.448;2023-02-13T00:16:18;12.48;;;7.18;;
37237;SDS011;23129;49.662;8.448;2023-02-13T00:18:47;15.45;;;8.02;;
37237;SDS011;23129;49.662;8.448;2023-02-13T00:21:15;16.10;;;6.82;;
37237;SDS011;23129;49.662;8.448;2023-02-13T00:23:44;14.50;;;7.50;;
37237;SDS011;23129;49.662;8.448;2023-02-13T00:26:13;13.88;;;7.20;;
37237;SDS011;23129;49.662;8.448;2023-02-13T00:28:43;14.02;;;7.32;;
37237;SDS011;23129;49.662;8.448;2023-02-13T00:31:12;11.52;;;6.35;;
37237;SDS011;23129;49.662;8.448;2023-02-13T00:33:44;12.50;;;6.28;;
37237;SDS011;23129;49.662;8.448;2023-02-13T00:36:13;10.25;;;6.53;;
37237;SDS011;23129;49.662;8.448;2023-02-13T00:38:43;10.82;;;6.30;;
37237;SDS011;23129;49.662;8.448;2023-02-13T00:41:12;10.98;;;6.22;;
37237;SDS011;23129;49.662;8.448;2023-02-13T00:43:42;13.38;;;6.53;;
37237;SDS011;23129;49.662;8.448;2023-02-13T00:46:11;15.90;;;7.15;;
37237;SDS011;23129;49.662;8.448;2023-02-13T00:48:40;16.52;;;8.80;;
37237;SDS011;23129;49.662;8.448;2023-02-13T00:51:10;11.52;;;6.25;;
37237;SDS011;23129;49.662;8.448;2023-02-13T00:53:39;11.05;;;6.00;;
37237;SDS011;23129;49.662;8.448;2023-02-13T00:56:07;9.30;;;5.82;;
37237;SDS011;23129;49.662;8.448;2023-02-13T00:58:36;12.32;;;6.40;;
37237;SDS011;23129;49.662;8.448;2023-02-13T01:01:04;12.82;;;6.47;;
37237;SDS011;23129;49.662;8.448;2023-02-13T01:03:33;11.85;;;6.90;;
37237;SDS011;23129;49.662;8.448;2023-02-13T01:06:01;11.60;;;6.28;;
37237;SDS011;23129;49.662;8.448;2023-02-13T01:08:32;11.85;;;5.63;;
37237;SDS011;23129;49.662;8.448;2023-02-13T01:11:01;12.20;;;4.95;;
37237;SDS011;23129;49.662;8.448;2023-02-13T01:13:29;15.20;;;7.28;;
37237;SDS011;23129;49.662;8.448;2023-02-13T01:15:58;12.25;;;6.30;;
37237;SDS011;23129;49.662;8.448;2023-02-13T01:18:26;12.25;;;6.72;;
37237;SDS011;23129;49.662;8.448;2023-02-13T01:20:56;9.32;;;5.32;;
37237;SDS011;23129;49.662;8.448;2023-02-13T01:23:28;12.93;;;6.85;;
37237;SDS011;23129;49.662;8.448;2023-02-13T01:26:01;16.55;;;6.88;;
37237;SDS011;23129;49.662;8.448;2023-02-13T01:28:30;15.75;;;7.50;;
37237;SDS011;23129;49.662;8.448;2023-02-13T01:30:59;14.70;;;6.25;;
37237;SDS011;23129;49.662;8.448;2023-02-13T01:33:29;12.27;;;7.25;;
37237;SDS011;23129;49.662;8.448;2023-02-13T01:35:57;9.50;;;5.57;;
37237;SDS011;23129;49.662;8.448;2023-02-13T01:38:27;13.15;;;7.53;;
37237;SDS011;23129;49.662;8.448;2023-02-13T01:40:56;14.23;;;8.30;;
37237;SDS011;23129;49.662;8.448;2023-02-13T01:46:13;14.13;;;7.22;;
37237;SDS011;23129;49.662;8.448;2023-02-13T01:48:48;18.80;;;7.05;;
37237;SDS011;23129;49.662;8.448;2023-02-13T01:51:21;11.82;;;7.63;;
37237;SDS011;23129;49.662;8.448;2023-02-13T01:53:55;16.08;;;7.97;;
37237;SDS011;23129;49.662;8.448;2023-02-13T01:56:28;9.75;;;5.55;;
37237;SDS011;23129;49.662;8.448;2023-02-13T01:59:02;15.32;;;7.32;;
37237;SDS011;23129;49.662;8.448;2023-02-13T02:01:35;13.05;;;7.80;;
37237;SDS011;23129;49.662;8.448;2023-02-13T02:04:06;18.80;;;8.85;;
37237;SDS011;23129;49.662;8.448;2023-02-13T02:06:38;16.30;;;8.60;;
37237;SDS011;23129;49.662;8.448;2023-02-13T02:09:12;12.20;;;6.88;;
37237;SDS011;23129;49.662;8.448;2023-02-13T02:11:47;14.77;;;7.40;;
37237;SDS011;23129;49.662;8.448;2023-02-13T02:14:24;12.60;;;7.50;;
37237;SDS011;23129;49.662;8.448;2023-02-13T02:16:55;11.93;;;6.35;;
37237;SDS011;23129;49.662;8.448;2023-02-13T02:19:25;15.13;;;8.63;;
37237;SDS011;23129;49.662;8.448;2023-02-13T02:25:27;13.18;;;6.95;;
37237;SDS011;23129;49.662;8.448;2023-02-13T02:28:37;13.57;;;6.93;;
37237;SDS011;23129;49.662;8.448;2023-02-13T02:34:30;12.50;;;6.43;;
37237;SDS011;23129;49.662;8.448;2023-02-13T02:37:14;15.85;;;7.53;;
37237;SDS011;23129;49.662;8.448;2023-02-13T02:39:56;14.95;;;8.15;;
37237;SDS011;23129;49.662;8.448;2023-02-13T02:42:38;13.05;;;7.28;;
37237;SDS011;23129;49.662;8.448;2023-02-13T02:45:19;11.57;;;6.90;;
37237;SDS011;23129;49.662;8.448;2023-02-13T02:47:58;13.73;;;6.95;;
37237;SDS011;23129;49.662;8.448;2023-02-13T02:51:06;18.23;;;7.05;;
37237;SDS011;23129;49.662;8.448;2023-02-13T02:53:53;11.65;;;6.07;;
37237;SDS011;23129;49.662;8.448;2023-02-13T02:56:51;12.40;;;5.95;;
37237;SDS011;23129;49.662;8.448;2023-02-13T02:59:26;14.35;;;7.53;;
37237;SDS011;23129;49.662;8.448;2023-02-13T03:02:14;13.48;;;8.20;;
37237;SDS011;23129;49.662;8.448;2023-02-13T03:05:02;15.63;;;7.25;;
37237;SDS011;23129;49.662;8.448;2023-02-13T03:08:00;12.43;;;6.35;;
37237;SDS011;23129;49.662;8.448;2023-02-13T03:10:30;15.30;;;6.95;;
37237;SDS011;23129;49.662;8.448;2023-02-13T03:13:30;12.40;;;6.68;;
37237;SDS011;23129;49.662;8.448;2023-02-13T03:16:09;13.30;;;7.75;;
37237;SDS011;23129;49.662;8.448;2023-02-13T03:19:00;15.63;;;6.75;;
37237;SDS011;23129;49.662;8.448;2023-02-13T03:21:48;16.35;;;7.88;;
37237;SDS011;23129;49.662;8.448;2023-02-13T03:24:43;17.80;;;7.65;;
37237;SDS011;23129;49.662;8.448;2023-02-13T03:27:22;12.57;;;6.68;;
37237;SDS011;23129;49.662;8.448;2023-02-13T03:30:27;15.38;;;8.15;;
37237;SDS011;23129;49.662;8.448;2023-02-13T03:33:11;13.95;;;7.65;;
37237;SDS011;23129;49.662;8.448;2023-02-13T03:35:56;15.13;;;7.65;;
37237;SDS011;23129;49.662;8.448;2023-02-13T03:38:54;14.98;;;7.18;;
37237;SDS011;23129;49.662;8.448;2023-02-13T03:41:28;15.38;;;7.53;;
37237;SDS011;23129;49.662;8.448;2023-02-13T03:44:05;15.73;;;7.90;;
37237;SDS011;23129;49.662;8.448;2023-02-13T03:46:43;14.38;;;6.75;;
37237;SDS011;23129;49.662;8.448;2023-02-13T03:49:16;21.60;;;7.93;;
37237;SDS011;23129;49.662;8.448;2023-02-13T03:52:06;16.67;;;7.22;;
37237;SDS011;23129;49.662;8.448;2023-02-13T03:54:42;18.13;;;8.00;;
37237;SDS011;23129;49.662;8.448;2023-02-13T03:57:32;22.13;;;9.35;;
37237;SDS011;23129;49.662;8.448;2023-02-13T04:00:24;12.32;;;7.30;;
37237;SDS011;23129;49.662;8.448;2023-02-13T04:02:56;13.90;;;7.82;;
37237;SDS011;23129;49.662;8.448;2023-02-13T04:05:35;13.63;;;7.10;;
37237;SDS011;23129;49.662;8.448;2023-02-13T04:08:09;16.17;;;7.65;;
37237;SDS011;23129;49.662;8.448;2023-02-13T04:10:41;14.40;;;7.72;;
37237;SDS011;23129;49.662;8.448;2023-02-13T04:13:17;17.52;;;8.93;;
37237;SDS011;23129;49.662;8.448;2023-02-13T04:15:55;16.27;;;8.05;;
37237;SDS011;23129;49.662;8.448;2023-02-13T04:18:28;13.93;;;7.90;;
37237;SDS011;23129;49.662;8.448;2023-02-13T04:21:00;15.10;;;7.72;;
37237;SDS011;23129;49.662;8.448;2023-02-13T04:23:29;17.52;;;8.70;;
37237;SDS011;23129;49.662;8.448;2023-02-13T04:26:00;17.58;;;7.22;;
37237;SDS011;23129;49.662;8.448;2023-02-13T04:31:00;13.73;;;6.82;;
37237;SDS011;23129;49.662;8.448;2023-02-13T04:33:29;16.05;;;8.63;;
37237;SDS011;23129;49.662;8.448;2023-02-13T04:35:58;13.88;;;7.30;;
37237;SDS011;23129;49.662;8.448;2023-02-13T04:38:26;15.63;;;8.43;;
37237;SDS011;23129;49.662;8.448;2023-02-13T04:40:55;20.60;;;8.43;;
37237;SDS011;23129;49.662;8.448;2023-02-13T04:43:25;13.90;;;7.95;;
37237;SDS011;23129;49.662;8.448;2023-02-13T04:45:53;16.88;;;8.85;;
37237;SDS011;23129;49.662;8.448;2023-02-13T04:48:21;18.10;;;8.90;;
37237;SDS011;23129;49.662;8.448;2023-02-13T04:50:50;15.95;;;8.60;;
37237;SDS011;23129;49.662;8.448;2023-02-13T04:53:18;12.45;;;7.18;;
37237;SDS011;23129;49.662;8.448;2023-02-13T04:55:47;18.55;;;9.15;;
37237;SDS011;23129;49.662;8.448;2023-02-13T04:58:15;16.83;;;8.82;;
37237;SDS011;23129;49.662;8.448;2023-02-13T05:00:45;21.05;;;8.43;;
37237;SDS011;23129;49.662;8.448;2023-02-13T05:03:14;24.92;;;11.05;;
37237;SDS011;23129;49.662;8.448;2023-02-13T05:05:43;20.25;;;9.60;;
37237;SDS011;23129;49.662;8.448;2023-02-13T05:08:11;20.40;;;9.20;;
37237;SDS011;23129;49.662;8.448;2023-02-13T05:10:39;16.67;;;8.60;;
37237;SDS011;23129;49.662;8.448;2023-02-13T05:13:08;18.17;;;9.18;;
37237;SDS011;23129;49.662;8.448;2023-02-13T05:15:37;17.92;;;9.00;;
37237;SDS011;23129;49.662;8.448;2023-02-13T05:18:06;19.50;;;8.73;;
37237;SDS011;23129;49.662;8.448;2023-02-13T05:20:35;20.90;;;9.93;;
37237;SDS011;23129;49.662;8.448;2023-02-13T05:23:03;16.85;;;8.88;;
37237;SDS011;23129;49.662;8.448;2023-02-13T05:25:49;17.17;;;8.43;;
37237;SDS011;23129;49.662;8.448;2023-02-13T05:28:17;23.05;;;10.30;;
37237;SDS011;23129;49.662;8.448;2023-02-13T05:31:04;23.17;;;8.63;;
37237;SDS011;23129;49.662;8.448;2023-02-13T05:33:34;17.98;;;7.95;;
37237;SDS011;23129;49.662;8.448;2023-02-13T05:36:02;13.35;;;6.13;;
37237;SDS011;23129;49.662;8.448;2023-02-13T05:38:31;13.43;;;6.90;;
37237;SDS011;23129;49.662;8.448;2023-02-13T05:41:00;14.52;;;7.15;;
37237;SDS011;23129;49.662;8.448;2023-02-13T05:43:28;9.70;;;5.88;;
37237;SDS011;23129;49.662;8.448;2023-02-13T05:46:01;7.90;;;4.78;;
37237;SDS011;23129;49.662;8.448;2023-02-13T05:48:31;6.75;;;5.43;;
37237;SDS011;23129;49.662;8.448;2023-02-13T05:51:01;8.93;;;5.97;;
37237;SDS011;23129;49.662;8.448;2023-02-13T05:53:30;5.93;;;5.22;;
37237;SDS011;23129;49.662;8.448;2023-02-13T05:56:01;9.40;;;5.93;;
37237;SDS011;23129;49.662;8.448;2023-02-13T05:58:29;8.13;;;5.00;;
37237;SDS011;23129;49.662;8.448;2023-02-13T06:00:59;10.93;;;5.97;;
37237;SDS011;23129;49.662;8.448;2023-02-13T06:03:27;7.05;;;4.75;;
37237;SDS011;23129;49.662;8.448;2023-02-13T06:05:58;10.45;;;6.30;;
37237;SDS011;23129;49.662;8.448;2023-02-13T06:08:27;9.05;;;5.70;;
37237;SDS011;23129;49.662;8.448;2023-02-13T06:10:56;13.68;;;6.18;;
37237;SDS011;23129;49.662;8.448;2023-02-13T06:13:25;13.20;;;6.07;;
37237;SDS011;23129;49.662;8.448;2023-02-13T06:15:53;16.10;;;7.00;;
37237;SDS011;23129;49.662;8.448;2023-02-13T06:18:22;11.07;;;5.75;;
37237;SDS011;23129;49.662;8.448;2023-02-13T06:20:51;16.90;;;8.55;;
37237;SDS011;23129;49.662;8.448;2023-02-13T06:23:20;12.93;;;6.97;;
37237;SDS011;23129;49.662;8.448;2023-02-13T06:25:48;16.45;;;7.93;;
37237;SDS011;23129;49.662;8.448;2023-02-13T06:28:17;13.65;;;6.88;;
37237;SDS011;23129;49.662;8.448;2023-02-13T06:30:45;11.95;;;6.68;;
37237;SDS011;23129;49.662;8.448;2023-02-13T06:33:15;10.25;;;6.85;;
37237;SDS011;23129;49.662;8.448;2023-02-13T06:35:43;12.88;;;7.28;;
37237;SDS011;23129;49.662;8.448;2023-02-13T06:38:12;13.88;;;7.25;;
37237;SDS011;23129;49.662;8.448;2023-02-13T06:40:45;12.60;;;6.82;;
37237;SDS011;23129;49.662;8.448;2023-02-13T06:43:14;13.18;;;6.82;;
37237;SDS011;23129;49.662;8.448;2023-02-13T06:45:43;13.55;;;6.82;;
37237;SDS011;23129;49.662;8.448;2023-02-13T06:48:13;11.63;;;6.03;;
37237;SDS011;23129;49.662;8.448;2023-02-13T06:50:41;26.17;;;11.15;;
37237;SDS011;23129;49.662;8.448;2023-02-13T06:53:10;46.95;;;18.42;;
37237;SDS011;23129;49.662;8.448;2023-02-13T06:55:38;35.25;;;14.48;;
37237;SDS011;23129;49.662;8.448;2023-02-13T06:58:08;25.50;;;11.60;;
37237;SDS011;23129;49.662;8.448;2023-02-13T07:00:36;19.20;;;8.18;;
37237;SDS011;23129;49.662;8.448;2023-02-13T07:03:05;15.77;;;8.60;;
37237;SDS011;23129;49.662;8.448;2023-02-13T07:05:35;16.48;;;8.52;;
37237;SDS011;23129;49.662;8.448;2023-02-13T07:08:07;23.83;;;10.32;;
37237;SDS011;23129;49.662;8.448;2023-02-13T07:10:35;18.38;;;9.65;;
37237;SDS011;23129;49.662;8.448;2023-02-13T07:13:04;20.30;;;8.73;;
37237;SDS011;23129;49.662;8.448;2023-02-13T07:15:35;18.63;;;9.40;;
37237;SDS011;23129;49.662;8.448;2023-02-13T07:18:04;20.25;;;9.13;;
37237;SDS011;23129;49.662;8.448;2023-02-13T07:20:33;20.48;;;10.02;;
37237;SDS011;23129;49.662;8.448;2023-02-13T07:23:02;17.35;;;7.53;;
37237;SDS011;23129;49.662;8.448;2023-02-13T07:25:32;18.73;;;9.13;;
37237;SDS011;23129;49.662;8.448;2023-02-13T07:28:01;17.73;;;9.15;;
37237;SDS011;23129;49.662;8.448;2023-02-13T07:30:30;33.83;;;12.05;;
37237;SDS011;23129;49.662;8.448;2023-02-13T07:33:01;22.50;;;11.45;;
37237;SDS011;23129;49.662;8.448;2023-02-13T07:35:31;30.25;;;11.82;;
37237;SDS011;23129;49.662;8.448;2023-02-13T07:38:01;26.40;;;11.57;;
37237;SDS011;23129;49.662;8.448;2023-02-13T07:40:29;25.02;;;12.07;;
37237;SDS011;23129;49.662;8.448;2023-02-13T07:42:58;32.90;;;11.65;;
37237;SDS011;23129;49.662;8.448;2023-02-13T07:45:27;26.92;;;12.95;;
37237;SDS011;23129;49.662;8.448;2023-02-13T07:47:56;38.90;;;11.57;;
37237;SDS011;23129;49.662;8.448;2023-02-13T07:50:26;22.15;;;9.82;;
37237;SDS011;23129;49.662;8.448;2023-02-13T07:52:55;25.85;;;11.63;;
37237;SDS011;23129;49.662;8.448;2023-02-13T07:55:24;31.08;;;11.60;;
37237;SDS011;23129;49.662;8.448;2023-02-13T07:57:54;31.95;;;12.43;;
37237;SDS011;23129;49.662;8.448;2023-02-13T08:00:22;30.05;;;13.13;;
37237;SDS011;23129;49.662;8.448;2023-02-13T08:02:51;31.42;;;12.20;;
37237;SDS011;23129;49.662;8.448;2023-02-13T08:05:19;24.90;;;11.48;;
37237;SDS011;23129;49.662;8.448;2023-02-13T08:07:49;26.00;;;12.05;;
37237;SDS011;23129;49.662;8.448;2023-02-13T08:10:18;26.67;;;12.63;;
37237;SDS011;23129;49.662;8.448;2023-02-13T08:13:05;19.35;;;10.23;;
37237;SDS011;23129;49.662;8.448;2023-02-13T08:15:34;15.75;;;9.48;;
37237;SDS011;23129;49.662;8.448;2023-02-13T08:18:03;15.05;;;9.20;;
37237;SDS011;23129;49.662;8.448;2023-02-13T08:20:31;17.00;;;9.52;;
37237;SDS011;23129;49.662;8.448;2023-02-13T08:23:05;15.30;;;8.77;;
37237;SDS011;23129;49.662;8.448;2023-02-13T08:25:36;14.88;;;8.20;;
37237;SDS011;23129;49.662;8.448;2023-02-13T08:28:05;10.63;;;7.00;;
37237;SDS011;23129;49.662;8.448;2023-02-13T08:30:34;17.38;;;9.75;;
37237;SDS011;23129;49.662;8.448;2023-02-13T08:33:03;22.02;;;9.82;;
37237;SDS011;23129;49.662;8.448;2023-02-13T08:35:31;19.83;;;9.93;;
37237;SDS011;23129;49.662;8.448;2023-02-13T08:38:00;17.70;;;9.05;;
37237;SDS011;23129;49.662;8.448;2023-02-13T08:40:31;15.93;;;9.40;;
37237;SDS011;23129;49.662;8.448;2023-02-13T08:43:00;12.52;;;7.88;;
37237;SDS011;23129;49.662;8.448;2023-02-13T08:45:30;9.18;;;7.40;;
37237;SDS011;23129;49.662;8.448;2023-02-13T08:47:59;9.50;;;6.82;;
37237;SDS011;23129;49.662;8.448;2023-02-13T08:50:29;10.50;;;6.60;;
37237;SDS011;23129;49.662;8.448;2023-02-13T08:52:58;10.93;;;6.55;;
37237;SDS011;23129;49.662;8.448;2023-02-13T08:55:27;13.80;;;7.03;;
37237;SDS011;23129;49.662;8.448;2023-02-13T08:57:59;12.35;;;7.97;;
37237;SDS011;23129;49.662;8.448;2023-02-13T09:00:28;14.40;;;8.50;;
37237;SDS011;23129;49.662;8.448;2023-02-13T09:02:59;18.33;;;9.70;;
37237;SDS011;23129;49.662;8.448;2023-02-13T09:05:28;18.80;;;9.15;;
37237;SDS011;23129;49.662;8.448;2023-02-13T09:07:58;22.13;;;9.60;;
37237;SDS011;23129;49.662;8.448;2023-02-13T09:10:29;20.60;;;10.75;;
37237;SDS011;23129;49.662;8.448;2023-02-13T09:12:59;17.13;;;9.57;;
37237;SDS011;23129;49.662;8.448;2023-02-13T09:15:28;15.82;;;8.90;;
37237;SDS011;23129;49.662;8.448;2023-02-13T09:17:56;18.60;;;10.27;;
37237;SDS011;23129;49.662;8.448;2023-02-13T09:20:25;20.95;;;11.27;;
37237;SDS011;23129;49.662;8.448;2023-02-13T09:22:54;20.55;;;11.65;;
37237;SDS011;23129;49.662;8.448;2023-02-13T09:25:23;24.80;;;11.30;;
37237;SDS011;23129;49.662;8.448;2023-02-13T09:27:51;27.15;;;12.10;;
37237;SDS011;23129;49.662;8.448;2023-02-13T09:30:21;18.50;;;10.10;;
37237;SDS011;23129;49.662;8.448;2023-02-13T09:32:50;18.67;;;11.13;;
37237;SDS011;23129;49.662;8.448;2023-02-13T09:35:20;19.27;;;10.10;;
37237;SDS011;23129;49.662;8.448;2023-02-13T09:37:49;18.02;;;10.18;;
37237;SDS011;23129;49.662;8.448;2023-02-13T09:40:19;23.60;;;11.57;;
37237;SDS011;23129;49.662;8.448;2023-02-13T09:42:56;16.30;;;9.50;;
37237;SDS011;23129;49.662;8.448;2023-02-13T09:45:36;18.65;;;10.10;;
37237;SDS011;23129;49.662;8.448;2023-02-13T09:48:05;20.40;;;10.40;;
37237;SDS011;23129;49.662;8.448;2023-02-13T09:50:36;21.52;;;11.10;;
37237;SDS011;23129;49.662;8.448;2023-02-13T09:53:05;21.88;;;10.65;;
37237;SDS011;23129;49.662;8.448;2023-02-13T09:55:34;19.17;;;10.52;;
37237;SDS011;23129;49.662;8.448;2023-02-13T09:58:20;21.17;;;10.73;;
37237;SDS011;23129;49.662;8.448;2023-02-13T10:01:02;24.52;;;10.52;;
37237;SDS011;23129;49.662;8.448;2023-02-13T10:03:42;22.73;;;9.80;;
37237;SDS011;23129;49.662;8.448;2023-02-13T10:06:16;25.70;;;10.55;;
37237;SDS011;23129;49.662;8.448;2023-02-13T10:09:02;22.45;;;10.15;;
37237;SDS011;23129;49.662;8.448;2023-02-13T10:11:42;15.98;;;9.60;;
37237;SDS011;23129;49.662;8.448;2023-02-13T10:14:35;21.15;;;9.30;;
37237;SDS011;23129;49.662;8.448;2023-02-13T10:17:16;19.25;;;9.25;;
37237;SDS011;23129;49.662;8.448;2023-02-13T10:19:50;17.80;;;8.95;;
37237;SDS011;23129;49.662;8.448;2023-02-13T10:22:28;19.52;;;11.15;;
37237;SDS011;23129;49.662;8.448;2023-02-13T10:25:03;20.52;;;10.07;;
37237;SDS011;23129;49.662;8.448;2023-02-13T10:27:39;21.35;;;10.45;;
37237;SDS011;23129;49.662;8.448;2023-02-13T10:32:50;19.00;;;9.35;;
37237;SDS011;23129;49.662;8.448;2023-02-13T10:35:40;18.13;;;8.75;;
37237;SDS011;23129;49.662;8.448;2023-02-13T10:38:13;21.52;;;8.88;;
37237;SDS011;23129;49.662;8.448;2023-02-13T10:40:49;20.20;;;10.93;;
37237;SDS011;23129;49.662;8.448;2023-02-13T10:43:33;20.55;;;9.85;;
37237;SDS011;23129;49.662;8.448;2023-02-13T10:46:13;13.88;;;8.57;;
37237;SDS011;23129;49.662;8.448;2023-02-13T10:48:58;12.68;;;7.68;;
37237;SDS011;23129;49.662;8.448;2023-02-13T10:51:44;13.02;;;8.05;;
37237;SDS011;23129;49.662;8.448;2023-02-13T10:54:28;13.57;;;8.07;;
37237;SDS011;23129;49.662;8.448;2023-02-13T10:57:18;22.27;;;8.57;;
37237;SDS011;23129;49.662;8.448;2023-02-13T10:59:57;18.05;;;9.18;;
37237;SDS011;23129;49.662;8.448;2023-02-13T11:02:37;18.13;;;9.65;;
37237;SDS011;23129;49.662;8.448;2023-02-13T11:05:13;14.90;;;8.40;;
37237;SDS011;23129;49.662;8.448;2023-02-13T11:07:45;13.43;;;7.93;;
37237;SDS011;23129;49.662;8.448;2023-02-13T11:10:15;16.23;;;9.02;;
37237;SDS011;23129;49.662;8.448;2023-02-13T11:12:46;16.08;;;8.10;;
37237;SDS011;23129;49.662;8.448;2023-02-13T11:15:22;15.77;;;9.05;;
37237;SDS011;23129;49.662;8.448;2023-02-13T11:17:53;14.45;;;8.40;;
37237;SDS011;23129;49.662;8.448;2023-02-13T11:20:27;11.90;;;7.20;;
37237;SDS011;23129;49.662;8.448;2023-02-13T11:23:16;15.73;;;7.35;;
37237;SDS011;23129;49.662;8.448;2023-02-13T11:26:00;13.90;;;8.10;;
37237;SDS011;23129;49.662;8.448;2023-02-13T11:28:33;11.93;;;7.80;;
37237;SDS011;23129;49.662;8.448;2023-02-13T11:31:13;15.60;;;8.23;;
37237;SDS011;23129;49.662;8.448;2023-02-13T11:33:50;12.48;;;7.05;;
37237;SDS011;23129;49.662;8.448;2023-02-13T11:36:23;11.25;;;7.05;;
37237;SDS011;23129;49.662;8.448;2023-02-13T11:38:58;11.98;;;6.78;;
37237;SDS011;23129;49.662;8.448;2023-02-13T11:41:29;14.93;;;7.60;;
37237;SDS011;23129;49.662;8.448;2023-02-13T11:44:03;11.63;;;7.30;;
37237;SDS011;23129;49.662;8.448;2023-02-13T11:46:42;15.07;;;8.70;;
37237;SDS011;23129;49.662;8.448;2023-02-13T11:49:15;16.95;;;8.25;;
37237;SDS011;23129;49.662;8.448;2023-02-13T11:51:49;12.43;;;7.68;;
37237;SDS011;23129;49.662;8.448;2023-02-13T11:54:29;12.05;;;7.22;;
37237;SDS011;23129;49.662;8.448;2023-02-13T11:57:00;9.73;;;6.10;;
37237;SDS011;23129;49.662;8.448;2023-02-13T11:59:44;16.13;;;7.60;;
37237;SDS011;23129;49.662;8.448;2023-02-13T12:02:16;14.43;;;7.45;;
37237;SDS011;23129;49.662;8.448;2023-02-13T12:04:48;13.40;;;7.72;;
37237;SDS011;23129;49.662;8.448;2023-02-13T12:07:21;17.35;;;7.63;;
37237;SDS011;23129;49.662;8.448;2023-02-13T12:09:54;14.38;;;6.82;;
37237;SDS011;23129;49.662;8.448;2023-02-13T12:12:31;15.57;;;6.57;;
37237;SDS011;23129;49.662;8.448;2023-02-13T12:15:13;12.13;;;6.93;;
37237;SDS011;23129;49.662;8.448;2023-02-13T12:17:45;13.30;;;7.40;;
37237;SDS011;23129;49.662;8.448;2023-02-13T12:20:18;13.75;;;8.43;;
37237;SDS011;23129;49.662;8.448;2023-02-13T12:22:53;10.80;;;7.38;;
37237;SDS011;23129;49.662;8.448;2023-02-13T12:25:43;13.63;;;7.63;;
37237;SDS011;23129;49.662;8.448;2023-02-13T12:28:27;10.43;;;6.70;;
37237;SDS011;23129;49.662;8.448;2023-02-13T12:31:17;13.25;;;6.68;;
37237;SDS011;23129;49.662;8.448;2023-02-13T12:34:24;10.40;;;6.85;;
37237;SDS011;23129;49.662;8.448;2023-02-13T12:37:26;13.20;;;5.65;;
37237;SDS011;23129;49.662;8.448;2023-02-13T12:40:25;9.63;;;6.60;;
37237;SDS011;23129;49.662;8.448;2023-02-13T12:43:51;12.48;;;6.78;;
37237;SDS011;23129;49.662;8.448;2023-02-13T12:47:09;9.50;;;6.57;;
37237;SDS011;23129;49.662;8.448;2023-02-13T12:49:51;11.30;;;6.68;;
37237;SDS011;23129;49.662;8.448;2023-02-13T12:56:01;14.88;;;5.85;;
37237;SDS011;23129;49.662;8.448;2023-02-13T12:58:59;13.73;;;6.65;;
37237;SDS011;23129;49.662;8.448;2023-02-13T13:01:40;10.05;;;6.35;;
37237;SDS011;23129;49.662;8.448;2023-02-13T13:04:33;11.95;;;7.05;;
37237;SDS011;23129;49.662;8.448;2023-02-13T13:07:18;12.02;;;6.70;;
37237;SDS011;23129;49.662;8.448;2023-02-13T13:10:18;8.90;;;6.00;;
37237;SDS011;23129;49.662;8.448;2023-02-13T13:13:04;12.60;;;6.28;;
37237;SDS011;23129;49.662;8.448;2023-02-13T13:15:51;8.60;;;6.60;;
37237;SDS011;23129;49.662;8.448;2023-02-13T13:18:31;9.88;;;6.57;;
37237;SDS011;23129;49.662;8.448;2023-02-13T13:21:14;9.98;;;6.25;;
37237;SDS011;23129;49.662;8.448;2023-02-13T13:23:52;12.82;;;7.68;;
37237;SDS011;23129;49.662;8.448;2023-02-13T13:26:27;9.18;;;6.28;;
37237;SDS011;23129;49.662;8.448;2023-02-13T13:29:04;15.00;;;6.55;;
37237;SDS011;23129;49.662;8.448;2023-02-13T13:31:40;10.10;;;6.93;;
37237;SDS011;23129;49.662;8.448;2023-02-13T13:34:21;12.32;;;6.75;;
37237;SDS011;23129;49.662;8.448;2023-02-13T13:36:53;9.60;;;6.32;;
37237;SDS011;23129;49.662;8.448;2023-02-13T13:39:29;10.30;;;6.63;;
37237;SDS011;23129;49.662;8.448;2023-02-13T13:42:11;10.95;;;5.90;;
37237;SDS011;23129;49.662;8.448;2023-02-13T13:44:50;10.18;;;6.40;;
37237;SDS011;23129;49.662;8.448;2023-02-13T13:47:39;8.75;;;6.20;;
37237;SDS011;23129;49.662;8.448;2023-02-13T13:53:07;9.60;;;6.00;;
37237;SDS011;23129;49.662;8.448;2023-02-13T13:56:02;8.65;;;5.60;;
37237;SDS011;23129;49.662;8.448;2023-02-13T13:58:36;9.52;;;6.38;;
37237;SDS011;23129;49.662;8.448;2023-02-13T14:01:21;12.15;;;6.22;;
37237;SDS011;23129;49.662;8.448;2023-02-13T14:03:54;11.50;;;6.53;;
37237;SDS011;23129;49.662;8.448;2023-02-13T14:06:25;19.85;;;6.57;;
37237;SDS011;23129;49.662;8.448;2023-02-13T14:08:57;8.80;;;5.93;;
37237;SDS011;23129;49.662;8.448;2023-02-13T14:11:48;6.55;;;4.90;;
37237;SDS011;23129;49.662;8.448;2023-02-13T14:20:29;7.45;;;5.35;;
37237;SDS011;23129;49.662;8.448;2023-02-13T14:23:06;9.55;;;5.97;;
37237;SDS011;23129;49.662;8.448;2023-02-13T14:26:11;11.30;;;5.60;;
37237;SDS011;23129;49.662;8.448;2023-02-13T14:29:21;7.95;;;5.18;;
37237;SDS011;23129;49.662;8.448;2023-02-13T14:32:04;10.02;;;6.20;;
37237;SDS011;23129;49.662;8.448;2023-02-13T14:34:52;9.80;;;5.95;;
37237;SDS011;23129;49.662;8.448;2023-02-13T14:37:27;8.65;;;5.15;;
37237;SDS011;23129;49.662;8.448;2023-02-13T14:40:09;8.75;;;6.00;;
37237;SDS011;23129;49.662;8.448;2023-02-13T14:43:17;8.80;;;5.18;;
37237;SDS011;23129;49.662;8.448;2023-02-13T14:46:12;10.75;;;6.30;;
37237;SDS011;23129;49.662;8.448;2023-02-13T14:48:55;9.68;;;5.68;;
37237;SDS011;23129;49.662;8.448;2023-02-13T14:51:32;12.05;;;6.20;;
37237;SDS011;23129;49.662;8.448;2023-02-13T14:54:06;7.95;;;5.18;;
37237;SDS011;23129;49.662;8.448;2023-02-13T14:56:42;9.45;;;5.72;;
37237;SDS011;23129;49.662;8.448;2023-02-13T14:59:15;6.88;;;5.38;;
37237;SDS011;23129;49.662;8.448;2023-02-13T15:01:49;10.57;;;5.43;;
37237;SDS011;23129;49.662;8.448;2023-02-13T15:04:25;9.43;;;4.95;;
37237;SDS011;23129;49.662;8.448;2023-02-13T15:06:59;7.63;;;5.20;;
37237;SDS011;23129;49.662;8.448;2023-02-13T15:12:21;10.75;;;5.60;;
37237;SDS011;23129;49.662;8.448;2023-02-13T15:14:53;9.98;;;5.45;;
37237;SDS011;23129;49.662;8.448;2023-02-13T15:17:21;7.80;;;5.20;;
37237;SDS011;23129;49.662;8.448;2023-02-13T15:19:55;12.85;;;5.18;;
37237;SDS011;23129;49.662;8.448;2023-02-13T15:22:31;18.17;;;6.10;;
37237;SDS011;23129;49.662;8.448;2023-02-13T15:25:03;9.95;;;5.97;;
37237;SDS011;23129;49.662;8.448;2023-02-13T15:27:36;9.80;;;5.10;;
37237;SDS011;23129;49.662;8.448;2023-02-13T15:30:17;9.50;;;5.00;;
37237;SDS011;23129;49.662;8.448;2023-02-13T15:32:53;10.32;;;6.05;;
37237;SDS011;23129;49.662;8.448;2023-02-13T15:35:23;11.43;;;6.20;;
37237;SDS011;23129;49.662;8.448;2023-02-13T15:37:55;10.90;;;6.05;;
37237;SDS011;23129;49.662;8.448;2023-02-13T15:40:25;21.25;;;6.45;;
37237;SDS011;23129;49.662;8.448;2023-02-13T15:42:56;13.35;;;6.55;;
37237;SDS011;23129;49.662;8.448;2023-02-13T15:45:26;9.30;;;5.82;;
37237;SDS011;23129;49.662;8.448;2023-02-13T15:47:56;10.88;;;5.85;;
37237;SDS011;23129;49.662;8.448;2023-02-13T15:50:26;12.02;;;6.25;;